sensor_id;sensor_type;location;lat;lon;timestamp;P1;durP1;ratioP1;P2;durP2;ratioP2
55641;SDS011;41509;53.108;6.100;2023-05-07T00:00:36;12.07;;;7.18;;
55641;SDS011;41509;53.108;6.100;2023-05-07T00:03:02;13.95;;;7.75;;
55641;SDS011;41509;53.108;6.100;2023-05-07T00:05:28;10.77;;;7.47;;
55641;SDS011;41509;53.108;6.100;2023-05-07T00:07:54;16.33;;;8.25;;
55641;SDS011;41509;53.108;6.100;2023-05-07T00:10:19;15.33;;;7.93;;
55641;SDS011;41509;53.108;6.100;2023-05-07T00:12:45;14.80;;;8.63;;
55641;SDS011;41509;53.108;6.100;2023-05-07T00:15:11;13.57;;;8.50;;
55641;SDS011;41509;53.108;6.100;2023-05-07T00:17:36;14.00;;;7.35;;
55641;SDS011;41509;53.108;6.100;2023-05-07T00:20:02;13.23;;;8.40;;
55641;SDS011;41509;53.108;6.100;2023-05-07T00:22:29;14.65;;;8.70;;
55641;SDS011;41509;53.108;6.100;2023-05-07T00:24:56;16.65;;;8.38;;
55641;SDS011;41509;53.108;6.100;2023-05-07T00:27:22;12.85;;;8.43;;
55641;SDS011;41509;53.108;6.100;2023-05-07T00:29:48;15.90;;;8.55;;
55641;SDS011;41509;53.108;6.100;2023-05-07T00:32:14;14.20;;;7.97;;
55641;SDS011;41509;53.108;6.100;2023-05-07T00:34:40;14.80;;;8.57;;
55641;SDS011;41509;53.108;6.100;2023-05-07T00:37:06;15.00;;;8.70;;
55641;SDS011;41509;53.108;6.100;2023-05-07T00:39:34;12.95;;;8.52;;
55641;SDS011;41509;53.108;6.100;2023-05-07T00:42:01;15.23;;;7.75;;
55641;SDS011;41509;53.108;6.100;2023-05-07T00:44:27;14.05;;;8.88;;
55641;SDS011;41509;53.108;6.100;2023-05-07T00:46:54;14.40;;;7.97;;
55641;SDS011;41509;53.108;6.100;2023-05-07T00:49:22;14.77;;;9.10;;
55641;SDS011;41509;53.108;6.100;2023-05-07T00:51:51;12.25;;;7.60;;
55641;SDS011;41509;53.108;6.100;2023-05-07T00:54:16;13.82;;;8.02;;
55641;SDS011;41509;53.108;6.100;2023-05-07T00:56:42;14.98;;;8.77;;
55641;SDS011;41509;53.108;6.100;2023-05-07T00:59:08;14.10;;;9.07;;
55641;SDS011;41509;53.108;6.100;2023-05-07T01:01:34;11.13;;;7.63;;
55641;SDS011;41509;53.108;6.100;2023-05-07T01:03:59;12.32;;;7.78;;
55641;SDS011;41509;53.108;6.100;2023-05-07T01:06:25;15.40;;;8.10;;
55641;SDS011;41509;53.108;6.100;2023-05-07T01:08:52;16.67;;;8.68;;
55641;SDS011;41509;53.108;6.100;2023-05-07T01:11:21;14.70;;;8.65;;
55641;SDS011;41509;53.108;6.100;2023-05-07T01:13:47;14.45;;;8.85;;
55641;SDS011;41509;53.108;6.100;2023-05-07T01:16:15;18.63;;;9.48;;
55641;SDS011;41509;53.108;6.100;2023-05-07T01:18:41;15.57;;;9.93;;
55641;SDS011;41509;53.108;6.100;2023-05-07T01:21:07;15.17;;;9.20;;
55641;SDS011;41509;53.108;6.100;2023-05-07T01:23:36;13.82;;;9.18;;
55641;SDS011;41509;53.108;6.100;2023-05-07T01:26:02;14.73;;;9.00;;
55641;SDS011;41509;53.108;6.100;2023-05-07T01:28:27;14.43;;;9.00;;
55641;SDS011;41509;53.108;6.100;2023-05-07T01:30:54;16.27;;;9.20;;
55641;SDS011;41509;53.108;6.100;2023-05-07T01:33:26;18.67;;;9.60;;
55641;SDS011;41509;53.108;6.100;2023-05-07T01:35:56;15.05;;;9.15;;
55641;SDS011;41509;53.108;6.100;2023-05-07T01:38:25;15.63;;;9.30;;
55641;SDS011;41509;53.108;6.100;2023-05-07T01:40:52;16.67;;;9.65;;
55641;SDS011;41509;53.108;6.100;2023-05-07T01:43:18;14.85;;;10.07;;
55641;SDS011;41509;53.108;6.100;2023-05-07T01:48:11;15.02;;;9.93;;
55641;SDS011;41509;53.108;6.100;2023-05-07T01:50:39;20.60;;;9.93;;
55641;SDS011;41509;53.108;6.100;2023-05-07T01:53:05;15.77;;;9.98;;
55641;SDS011;41509;53.108;6.100;2023-05-07T01:55:31;17.55;;;10.57;;
55641;SDS011;41509;53.108;6.100;2023-05-07T01:57:57;17.58;;;10.77;;
55641;SDS011;41509;53.108;6.100;2023-05-07T02:00:22;19.77;;;11.17;;
55641;SDS011;41509;53.108;6.100;2023-05-07T02:02:48;17.75;;;10.15;;
55641;SDS011;41509;53.108;6.100;2023-05-07T02:05:14;19.92;;;11.68;;
55641;SDS011;41509;53.108;6.100;2023-05-07T02:07:39;17.63;;;10.83;;
55641;SDS011;41509;53.108;6.100;2023-05-07T02:10:05;18.20;;;10.73;;
55641;SDS011;41509;53.108;6.100;2023-05-07T02:12:31;18.63;;;11.05;;
55641;SDS011;41509;53.108;6.100;2023-05-07T02:14:57;19.30;;;11.33;;
55641;SDS011;41509;53.108;6.100;2023-05-07T02:17:22;21.50;;;11.07;;
55641;SDS011;41509;53.108;6.100;2023-05-07T02:19:48;21.87;;;11.43;;
55641;SDS011;41509;53.108;6.100;2023-05-07T02:22:13;20.23;;;11.93;;
55641;SDS011;41509;53.108;6.100;2023-05-07T02:24:39;21.65;;;11.98;;
55641;SDS011;41509;53.108;6.100;2023-05-07T02:27:05;22.67;;;12.55;;
55641;SDS011;41509;53.108;6.100;2023-05-07T02:29:30;20.50;;;11.70;;
55641;SDS011;41509;53.108;6.100;2023-05-07T02:31:56;19.03;;;11.80;;
55641;SDS011;41509;53.108;6.100;2023-05-07T02:34:22;23.52;;;12.45;;
55641;SDS011;41509;53.108;6.100;2023-05-07T02:36:47;22.37;;;11.73;;
55641;SDS011;41509;53.108;6.100;2023-05-07T02:39:13;18.03;;;10.40;;
55641;SDS011;41509;53.108;6.100;2023-05-07T02:41:39;20.40;;;11.93;;
55641;SDS011;41509;53.108;6.100;2023-05-07T02:44:04;19.57;;;12.03;;
55641;SDS011;41509;53.108;6.100;2023-05-07T02:46:30;17.63;;;11.50;;
55641;SDS011;41509;53.108;6.100;2023-05-07T02:48:56;20.65;;;11.88;;
55641;SDS011;41509;53.108;6.100;2023-05-07T02:51:22;22.48;;;11.27;;
55641;SDS011;41509;53.108;6.100;2023-05-07T02:53:48;19.67;;;11.70;;
55641;SDS011;41509;53.108;6.100;2023-05-07T02:56:14;20.27;;;12.13;;
55641;SDS011;41509;53.108;6.100;2023-05-07T02:58:40;20.90;;;12.00;;
55641;SDS011;41509;53.108;6.100;2023-05-07T03:01:07;20.52;;;12.15;;
55641;SDS011;41509;53.108;6.100;2023-05-07T03:03:33;22.33;;;13.07;;
55641;SDS011;41509;53.108;6.100;2023-05-07T03:05:58;19.83;;;12.10;;
55641;SDS011;41509;53.108;6.100;2023-05-07T03:08:24;19.08;;;12.02;;
55641;SDS011;41509;53.108;6.100;2023-05-07T03:10:50;19.87;;;12.60;;
55641;SDS011;41509;53.108;6.100;2023-05-07T03:13:16;22.08;;;12.40;;
55641;SDS011;41509;53.108;6.100;2023-05-07T03:15:42;22.60;;;12.60;;
55641;SDS011;41509;53.108;6.100;2023-05-07T03:18:07;24.27;;;12.93;;
55641;SDS011;41509;53.108;6.100;2023-05-07T03:20:33;21.50;;;12.10;;
55641;SDS011;41509;53.108;6.100;2023-05-07T03:22:59;23.75;;;12.27;;
55641;SDS011;41509;53.108;6.100;2023-05-07T03:25:25;18.80;;;11.97;;
55641;SDS011;41509;53.108;6.100;2023-05-07T03:27:51;20.25;;;12.73;;
55641;SDS011;41509;53.108;6.100;2023-05-07T03:30:16;22.50;;;13.13;;
55641;SDS011;41509;53.108;6.100;2023-05-07T03:32:42;22.60;;;13.00;;
55641;SDS011;41509;53.108;6.100;2023-05-07T03:35:08;19.83;;;12.07;;
55641;SDS011;41509;53.108;6.100;2023-05-07T03:37:33;23.85;;;13.63;;
55641;SDS011;41509;53.108;6.100;2023-05-07T03:39:59;23.35;;;12.85;;
55641;SDS011;41509;53.108;6.100;2023-05-07T03:42:25;22.17;;;12.63;;
55641;SDS011;41509;53.108;6.100;2023-05-07T03:44:50;23.80;;;12.57;;
55641;SDS011;41509;53.108;6.100;2023-05-07T03:47:16;23.50;;;13.20;;
55641;SDS011;41509;53.108;6.100;2023-05-07T03:49:41;26.10;;;14.47;;
55641;SDS011;41509;53.108;6.100;2023-05-07T03:52:07;21.70;;;13.10;;
55641;SDS011;41509;53.108;6.100;2023-05-07T03:54:33;22.42;;;13.45;;
55641;SDS011;41509;53.108;6.100;2023-05-07T03:56:58;23.70;;;13.60;;
55641;SDS011;41509;53.108;6.100;2023-05-07T03:59:24;22.43;;;13.50;;
55641;SDS011;41509;53.108;6.100;2023-05-07T04:01:50;24.30;;;15.13;;
55641;SDS011;41509;53.108;6.100;2023-05-07T04:04:16;23.27;;;14.00;;
55641;SDS011;41509;53.108;6.100;2023-05-07T04:06:42;24.02;;;14.15;;
55641;SDS011;41509;53.108;6.100;2023-05-07T04:09:07;27.53;;;14.17;;
55641;SDS011;41509;53.108;6.100;2023-05-07T04:11:34;27.20;;;14.55;;
55641;SDS011;41509;53.108;6.100;2023-05-07T04:14:00;30.52;;;14.95;;
55641;SDS011;41509;53.108;6.100;2023-05-07T04:16:26;27.83;;;15.00;;
55641;SDS011;41509;53.108;6.100;2023-05-07T04:18:52;25.92;;;14.75;;
55641;SDS011;41509;53.108;6.100;2023-05-07T04:21:18;28.90;;;15.43;;
55641;SDS011;41509;53.108;6.100;2023-05-07T04:23:45;29.02;;;15.52;;
55641;SDS011;41509;53.108;6.100;2023-05-07T04:26:14;30.10;;;15.82;;
55641;SDS011;41509;53.108;6.100;2023-05-07T04:28:40;26.85;;;15.85;;
55641;SDS011;41509;53.108;6.100;2023-05-07T04:31:07;26.67;;;14.90;;
55641;SDS011;41509;53.108;6.100;2023-05-07T04:33:32;28.25;;;15.70;;
55641;SDS011;41509;53.108;6.100;2023-05-07T04:36:00;29.30;;;15.07;;
55641;SDS011;41509;53.108;6.100;2023-05-07T04:38:28;31.98;;;15.75;;
55641;SDS011;41509;53.108;6.100;2023-05-07T04:40:55;29.55;;;15.85;;
55641;SDS011;41509;53.108;6.100;2023-05-07T04:43:21;32.10;;;16.48;;
55641;SDS011;41509;53.108;6.100;2023-05-07T04:45:47;31.65;;;16.42;;
55641;SDS011;41509;53.108;6.100;2023-05-07T04:48:14;28.45;;;15.23;;
55641;SDS011;41509;53.108;6.100;2023-05-07T04:50:40;32.60;;;15.77;;
55641;SDS011;41509;53.108;6.100;2023-05-07T04:53:06;35.25;;;17.75;;
55641;SDS011;41509;53.108;6.100;2023-05-07T04:55:31;24.37;;;15.00;;
55641;SDS011;41509;53.108;6.100;2023-05-07T04:57:57;29.80;;;16.73;;
55641;SDS011;41509;53.108;6.100;2023-05-07T05:00:23;31.00;;;16.77;;
55641;SDS011;41509;53.108;6.100;2023-05-07T05:02:50;27.65;;;16.63;;
55641;SDS011;41509;53.108;6.100;2023-05-07T05:05:15;30.90;;;16.30;;
55641;SDS011;41509;53.108;6.100;2023-05-07T05:07:41;27.87;;;15.80;;
55641;SDS011;41509;53.108;6.100;2023-05-07T05:10:06;34.63;;;17.33;;
55641;SDS011;41509;53.108;6.100;2023-05-07T05:12:32;38.08;;;17.38;;
55641;SDS011;41509;53.108;6.100;2023-05-07T05:14:58;33.83;;;16.90;;
55641;SDS011;41509;53.108;6.100;2023-05-07T05:17:23;28.73;;;16.77;;
55641;SDS011;41509;53.108;6.100;2023-05-07T05:19:49;30.65;;;16.15;;
55641;SDS011;41509;53.108;6.100;2023-05-07T05:22:16;32.33;;;16.52;;
55641;SDS011;41509;53.108;6.100;2023-05-07T05:24:41;30.73;;;16.40;;
55641;SDS011;41509;53.108;6.100;2023-05-07T05:27:07;30.27;;;16.13;;
55641;SDS011;41509;53.108;6.100;2023-05-07T05:29:33;32.58;;;16.48;;
55641;SDS011;41509;53.108;6.100;2023-05-07T05:31:58;30.63;;;16.17;;
55641;SDS011;41509;53.108;6.100;2023-05-07T05:34:24;34.00;;;17.30;;
55641;SDS011;41509;53.108;6.100;2023-05-07T05:36:49;34.27;;;16.63;;
55641;SDS011;41509;53.108;6.100;2023-05-07T05:39:15;33.17;;;16.37;;
55641;SDS011;41509;53.108;6.100;2023-05-07T05:41:41;29.60;;;15.93;;
55641;SDS011;41509;53.108;6.100;2023-05-07T05:44:06;31.30;;;16.40;;
55641;SDS011;41509;53.108;6.100;2023-05-07T05:46:32;29.60;;;16.23;;
55641;SDS011;41509;53.108;6.100;2023-05-07T05:48:58;30.40;;;16.97;;
55641;SDS011;41509;53.108;6.100;2023-05-07T05:51:23;30.00;;;16.07;;
55641;SDS011;41509;53.108;6.100;2023-05-07T05:53:49;32.30;;;17.43;;
55641;SDS011;41509;53.108;6.100;2023-05-07T05:56:15;33.13;;;15.70;;
55641;SDS011;41509;53.108;6.100;2023-05-07T05:58:41;31.25;;;15.68;;
55641;SDS011;41509;53.108;6.100;2023-05-07T06:01:07;29.70;;;15.05;;
55641;SDS011;41509;53.108;6.100;2023-05-07T06:03:32;29.63;;;14.93;;
55641;SDS011;41509;53.108;6.100;2023-05-07T06:05:58;31.83;;;14.97;;
55641;SDS011;41509;53.108;6.100;2023-05-07T06:08:25;30.60;;;15.32;;
55641;SDS011;41509;53.108;6.100;2023-05-07T06:10:51;29.98;;;16.55;;
55641;SDS011;41509;53.108;6.100;2023-05-07T06:13:17;27.45;;;14.90;;
55641;SDS011;41509;53.108;6.100;2023-05-07T06:15:42;25.87;;;15.00;;
55641;SDS011;41509;53.108;6.100;2023-05-07T06:18:08;26.33;;;15.13;;
55641;SDS011;41509;53.108;6.100;2023-05-07T06:20:33;28.70;;;15.17;;
55641;SDS011;41509;53.108;6.100;2023-05-07T06:22:59;26.83;;;15.10;;
55641;SDS011;41509;53.108;6.100;2023-05-07T06:25:25;24.47;;;13.93;;
55641;SDS011;41509;53.108;6.100;2023-05-07T06:27:50;29.77;;;15.60;;
55641;SDS011;41509;53.108;6.100;2023-05-07T06:30:16;25.63;;;14.77;;
55641;SDS011;41509;53.108;6.100;2023-05-07T06:32:41;25.67;;;14.17;;
55641;SDS011;41509;53.108;6.100;2023-05-07T06:35:07;27.73;;;14.93;;
55641;SDS011;41509;53.108;6.100;2023-05-07T06:37:33;28.10;;;14.13;;
55641;SDS011;41509;53.108;6.100;2023-05-07T06:39:59;23.20;;;13.25;;
55641;SDS011;41509;53.108;6.100;2023-05-07T06:42:24;24.70;;;14.63;;
55641;SDS011;41509;53.108;6.100;2023-05-07T06:44:50;23.07;;;13.67;;
55641;SDS011;41509;53.108;6.100;2023-05-07T06:47:16;23.97;;;14.10;;
55641;SDS011;41509;53.108;6.100;2023-05-07T06:49:41;25.90;;;13.53;;
55641;SDS011;41509;53.108;6.100;2023-05-07T06:52:07;26.53;;;14.07;;
55641;SDS011;41509;53.108;6.100;2023-05-07T06:54:32;27.17;;;14.13;;
55641;SDS011;41509;53.108;6.100;2023-05-07T06:56:58;27.35;;;13.43;;
55641;SDS011;41509;53.108;6.100;2023-05-07T06:59:24;21.83;;;13.20;;
55641;SDS011;41509;53.108;6.100;2023-05-07T07:01:49;24.52;;;13.98;;
55641;SDS011;41509;53.108;6.100;2023-05-07T07:04:15;24.23;;;13.73;;
55641;SDS011;41509;53.108;6.100;2023-05-07T07:06:41;24.75;;;13.38;;
55641;SDS011;41509;53.108;6.100;2023-05-07T07:09:06;25.50;;;13.15;;
55641;SDS011;41509;53.108;6.100;2023-05-07T07:11:32;23.67;;;13.70;;
55641;SDS011;41509;53.108;6.100;2023-05-07T07:13:57;22.70;;;13.20;;
55641;SDS011;41509;53.108;6.100;2023-05-07T07:16:24;20.33;;;12.88;;
55641;SDS011;41509;53.108;6.100;2023-05-07T07:18:49;24.30;;;12.55;;
55641;SDS011;41509;53.108;6.100;2023-05-07T07:21:15;25.90;;;13.80;;
55641;SDS011;41509;53.108;6.100;2023-05-07T07:23:41;22.53;;;12.67;;
55641;SDS011;41509;53.108;6.100;2023-05-07T07:26:06;24.13;;;12.93;;
55641;SDS011;41509;53.108;6.100;2023-05-07T07:28:32;21.23;;;13.17;;
55641;SDS011;41509;53.108;6.100;2023-05-07T07:30:58;22.33;;;13.77;;
55641;SDS011;41509;53.108;6.100;2023-05-07T07:33:23;25.53;;;13.53;;
55641;SDS011;41509;53.108;6.100;2023-05-07T07:35:49;22.20;;;12.20;;
55641;SDS011;41509;53.108;6.100;2023-05-07T07:38:15;22.67;;;11.87;;
55641;SDS011;41509;53.108;6.100;2023-05-07T07:40:40;25.35;;;14.70;;
55641;SDS011;41509;53.108;6.100;2023-05-07T07:43:06;23.83;;;12.83;;
55641;SDS011;41509;53.108;6.100;2023-05-07T07:45:31;23.47;;;12.60;;
55641;SDS011;41509;53.108;6.100;2023-05-07T07:47:57;23.88;;;12.73;;
55641;SDS011;41509;53.108;6.100;2023-05-07T07:50:23;22.63;;;13.27;;
55641;SDS011;41509;53.108;6.100;2023-05-07T07:52:48;25.30;;;13.83;;
55641;SDS011;41509;53.108;6.100;2023-05-07T07:55:14;24.23;;;13.73;;
55641;SDS011;41509;53.108;6.100;2023-05-07T07:57:43;22.48;;;13.60;;
55641;SDS011;41509;53.108;6.100;2023-05-07T08:00:08;24.77;;;14.23;;
55641;SDS011;41509;53.108;6.100;2023-05-07T08:02:34;20.75;;;12.57;;
55641;SDS011;41509;53.108;6.100;2023-05-07T08:05:03;20.27;;;13.17;;
55641;SDS011;41509;53.108;6.100;2023-05-07T08:07:29;28.40;;;14.52;;
55641;SDS011;41509;53.108;6.100;2023-05-07T08:09:54;25.17;;;13.48;;
55641;SDS011;41509;53.108;6.100;2023-05-07T08:12:22;24.27;;;14.75;;
55641;SDS011;41509;53.108;6.100;2023-05-07T08:14:50;24.65;;;13.38;;
55641;SDS011;41509;53.108;6.100;2023-05-07T08:17:16;22.55;;;13.15;;
55641;SDS011;41509;53.108;6.100;2023-05-07T08:19:42;21.73;;;13.02;;
55641;SDS011;41509;53.108;6.100;2023-05-07T08:22:08;27.33;;;14.55;;
55641;SDS011;41509;53.108;6.100;2023-05-07T08:24:36;20.15;;;13.05;;
55641;SDS011;41509;53.108;6.100;2023-05-07T08:27:01;23.55;;;12.88;;
55641;SDS011;41509;53.108;6.100;2023-05-07T08:29:27;25.70;;;13.27;;
55641;SDS011;41509;53.108;6.100;2023-05-07T08:31:53;22.03;;;13.20;;
55641;SDS011;41509;53.108;6.100;2023-05-07T08:34:19;20.20;;;13.10;;
55641;SDS011;41509;53.108;6.100;2023-05-07T08:36:45;21.25;;;13.32;;
55641;SDS011;41509;53.108;6.100;2023-05-07T08:39:13;21.63;;;13.50;;
55641;SDS011;41509;53.108;6.100;2023-05-07T08:41:40;20.40;;;12.32;;
55641;SDS011;41509;53.108;6.100;2023-05-07T08:44:11;20.92;;;12.95;;
55641;SDS011;41509;53.108;6.100;2023-05-07T08:46:39;27.05;;;13.75;;
55641;SDS011;41509;53.108;6.100;2023-05-07T08:49:06;27.70;;;14.43;;
55641;SDS011;41509;53.108;6.100;2023-05-07T08:51:32;23.50;;;13.20;;
55641;SDS011;41509;53.108;6.100;2023-05-07T08:53:58;22.65;;;12.63;;
55641;SDS011;41509;53.108;6.100;2023-05-07T08:56:26;22.90;;;12.45;;
55641;SDS011;41509;53.108;6.100;2023-05-07T08:58:54;21.50;;;13.73;;
55641;SDS011;41509;53.108;6.100;2023-05-07T09:01:23;21.65;;;13.75;;
55641;SDS011;41509;53.108;6.100;2023-05-07T09:03:50;22.98;;;12.93;;
55641;SDS011;41509;53.108;6.100;2023-05-07T09:06:19;22.30;;;12.68;;
55641;SDS011;41509;53.108;6.100;2023-05-07T09:08:49;24.38;;;13.43;;
55641;SDS011;41509;53.108;6.100;2023-05-07T09:11:22;18.92;;;11.82;;
55641;SDS011;41509;53.108;6.100;2023-05-07T09:13:49;22.27;;;13.07;;
55641;SDS011;41509;53.108;6.100;2023-05-07T09:16:20;23.80;;;13.27;;
55641;SDS011;41509;53.108;6.100;2023-05-07T09:18:47;23.90;;;13.32;;
55641;SDS011;41509;53.108;6.100;2023-05-07T09:21:15;21.65;;;13.55;;
55641;SDS011;41509;53.108;6.100;2023-05-07T09:23:42;24.00;;;13.95;;
55641;SDS011;41509;53.108;6.100;2023-05-07T09:26:10;23.60;;;14.30;;
55641;SDS011;41509;53.108;6.100;2023-05-07T09:28:39;23.85;;;12.95;;
55641;SDS011;41509;53.108;6.100;2023-05-07T09:31:10;24.05;;;12.85;;
55641;SDS011;41509;53.108;6.100;2023-05-07T09:33:37;23.10;;;13.18;;
55641;SDS011;41509;53.108;6.100;2023-05-07T09:36:04;20.27;;;13.10;;
55641;SDS011;41509;53.108;6.100;2023-05-07T09:38:31;22.48;;;14.50;;
55641;SDS011;41509;53.108;6.100;2023-05-07T09:43:38;24.60;;;13.63;;
55641;SDS011;41509;53.108;6.100;2023-05-07T09:46:11;26.15;;;14.38;;
55641;SDS011;41509;53.108;6.100;2023-05-07T09:48:50;21.83;;;12.95;;
55641;SDS011;41509;53.108;6.100;2023-05-07T09:51:29;24.15;;;13.70;;
55641;SDS011;41509;53.108;6.100;2023-05-07T09:53:56;22.67;;;14.25;;
55641;SDS011;41509;53.108;6.100;2023-05-07T09:56:25;23.08;;;13.63;;
55641;SDS011;41509;53.108;6.100;2023-05-07T09:58:52;23.45;;;13.70;;
55641;SDS011;41509;53.108;6.100;2023-05-07T10:01:20;23.95;;;12.98;;
55641;SDS011;41509;53.108;6.100;2023-05-07T10:03:47;27.65;;;14.52;;
55641;SDS011;41509;53.108;6.100;2023-05-07T10:06:15;20.35;;;12.15;;
55641;SDS011;41509;53.108;6.100;2023-05-07T10:11:08;20.33;;;12.50;;
55641;SDS011;41509;53.108;6.100;2023-05-07T10:13:35;22.13;;;13.00;;
55641;SDS011;41509;53.108;6.100;2023-05-07T10:16:04;20.20;;;13.13;;
55641;SDS011;41509;53.108;6.100;2023-05-07T10:18:33;22.58;;;13.32;;
55641;SDS011;41509;53.108;6.100;2023-05-07T10:21:02;21.48;;;13.13;;
55641;SDS011;41509;53.108;6.100;2023-05-07T10:23:35;23.38;;;13.05;;
55641;SDS011;41509;53.108;6.100;2023-05-07T10:26:02;20.30;;;12.82;;
55641;SDS011;41509;53.108;6.100;2023-05-07T10:28:30;20.80;;;13.13;;
55641;SDS011;41509;53.108;6.100;2023-05-07T10:31:07;25.75;;;13.88;;
55641;SDS011;41509;53.108;6.100;2023-05-07T10:33:33;23.88;;;13.35;;
55641;SDS011;41509;53.108;6.100;2023-05-07T10:36:01;22.40;;;13.68;;
55641;SDS011;41509;53.108;6.100;2023-05-07T10:38:29;21.40;;;13.65;;
55641;SDS011;41509;53.108;6.100;2023-05-07T10:40:55;20.70;;;11.90;;
55641;SDS011;41509;53.108;6.100;2023-05-07T10:43:21;21.02;;;12.68;;
55641;SDS011;41509;53.108;6.100;2023-05-07T10:46:21;21.95;;;12.77;;
55641;SDS011;41509;53.108;6.100;2023-05-07T10:51:38;21.30;;;12.82;;
55641;SDS011;41509;53.108;6.100;2023-05-07T10:56:39;22.98;;;13.57;;
55641;SDS011;41509;53.108;6.100;2023-05-07T11:01:49;20.30;;;12.48;;
55641;SDS011;41509;53.108;6.100;2023-05-07T11:04:15;17.08;;;11.02;;
55641;SDS011;41509;53.108;6.100;2023-05-07T11:07:00;22.48;;;12.40;;
55641;SDS011;41509;53.108;6.100;2023-05-07T11:12:16;19.83;;;11.68;;
55641;SDS011;41509;53.108;6.100;2023-05-07T11:17:33;19.15;;;11.77;;
55641;SDS011;41509;53.108;6.100;2023-05-07T11:20:00;18.90;;;11.52;;
55641;SDS011;41509;53.108;6.100;2023-05-07T11:25:02;19.52;;;12.35;;
55641;SDS011;41509;53.108;6.100;2023-05-07T11:27:28;17.63;;;11.38;;
55641;SDS011;41509;53.108;6.100;2023-05-07T11:29:57;16.95;;;11.57;;
55641;SDS011;41509;53.108;6.100;2023-05-07T11:32:27;19.58;;;10.95;;
55641;SDS011;41509;53.108;6.100;2023-05-07T11:34:55;17.17;;;11.82;;
55641;SDS011;41509;53.108;6.100;2023-05-07T11:37:23;20.30;;;11.27;;
55641;SDS011;41509;53.108;6.100;2023-05-07T11:39:50;17.30;;;10.95;;
55641;SDS011;41509;53.108;6.100;2023-05-07T11:45:00;17.15;;;10.55;;
55641;SDS011;41509;53.108;6.100;2023-05-07T11:49:54;17.10;;;11.13;;
55641;SDS011;41509;53.108;6.100;2023-05-07T11:52:21;18.35;;;11.77;;
55641;SDS011;41509;53.108;6.100;2023-05-07T11:54:53;18.00;;;10.88;;
55641;SDS011;41509;53.108;6.100;2023-05-07T11:57:21;17.52;;;10.88;;
55641;SDS011;41509;53.108;6.100;2023-05-07T11:59:47;15.73;;;10.10;;
55641;SDS011;41509;53.108;6.100;2023-05-07T12:02:17;16.20;;;10.50;;
55641;SDS011;41509;53.108;6.100;2023-05-07T12:04:43;17.98;;;10.93;;
55641;SDS011;41509;53.108;6.100;2023-05-07T12:07:12;17.67;;;10.77;;
55641;SDS011;41509;53.108;6.100;2023-05-07T12:09:43;17.55;;;10.73;;
55641;SDS011;41509;53.108;6.100;2023-05-07T12:12:09;16.92;;;11.23;;
55641;SDS011;41509;53.108;6.100;2023-05-07T12:14:41;16.42;;;10.43;;
55641;SDS011;41509;53.108;6.100;2023-05-07T12:17:08;15.18;;;9.82;;
55641;SDS011;41509;53.108;6.100;2023-05-07T12:19:35;18.63;;;11.35;;
55641;SDS011;41509;53.108;6.100;2023-05-07T12:22:03;15.45;;;11.05;;
55641;SDS011;41509;53.108;6.100;2023-05-07T12:24:29;14.68;;;10.23;;
55641;SDS011;41509;53.108;6.100;2023-05-07T12:27:06;17.10;;;10.35;;
55641;SDS011;41509;53.108;6.100;2023-05-07T12:29:32;15.90;;;10.23;;
55641;SDS011;41509;53.108;6.100;2023-05-07T12:31:57;15.70;;;10.60;;
55641;SDS011;41509;53.108;6.100;2023-05-07T12:34:23;13.20;;;9.45;;
55641;SDS011;41509;53.108;6.100;2023-05-07T12:36:49;12.00;;;9.02;;
55641;SDS011;41509;53.108;6.100;2023-05-07T12:39:15;15.68;;;9.07;;
55641;SDS011;41509;53.108;6.100;2023-05-07T12:41:57;14.65;;;10.38;;
55641;SDS011;41509;53.108;6.100;2023-05-07T12:44:24;13.85;;;8.95;;
55641;SDS011;41509;53.108;6.100;2023-05-07T12:46:53;14.35;;;9.95;;
55641;SDS011;41509;53.108;6.100;2023-05-07T12:49:22;15.07;;;9.73;;
55641;SDS011;41509;53.108;6.100;2023-05-07T12:51:49;15.27;;;9.52;;
55641;SDS011;41509;53.108;6.100;2023-05-07T12:54:28;14.13;;;10.35;;
55641;SDS011;41509;53.108;6.100;2023-05-07T12:57:01;17.58;;;10.20;;
55641;SDS011;41509;53.108;6.100;2023-05-07T12:59:31;17.05;;;9.13;;
55641;SDS011;41509;53.108;6.100;2023-05-07T13:02:01;12.80;;;9.00;;
55641;SDS011;41509;53.108;6.100;2023-05-07T13:04:26;15.32;;;10.07;;
55641;SDS011;41509;53.108;6.100;2023-05-07T13:06:59;13.23;;;8.15;;
55641;SDS011;41509;53.108;6.100;2023-05-07T13:11:51;14.38;;;9.30;;
55641;SDS011;41509;53.108;6.100;2023-05-07T13:14:16;14.88;;;9.20;;
55641;SDS011;41509;53.108;6.100;2023-05-07T13:16:42;13.35;;;9.27;;
55641;SDS011;41509;53.108;6.100;2023-05-07T13:19:08;15.88;;;9.98;;
55641;SDS011;41509;53.108;6.100;2023-05-07T13:21:34;15.32;;;9.68;;
55641;SDS011;41509;53.108;6.100;2023-05-07T13:23:59;14.82;;;9.63;;
55641;SDS011;41509;53.108;6.100;2023-05-07T13:28:51;12.52;;;9.07;;
55641;SDS011;41509;53.108;6.100;2023-05-07T13:31:17;16.55;;;9.23;;
55641;SDS011;41509;53.108;6.100;2023-05-07T13:36:09;14.07;;;8.40;;
55641;SDS011;41509;53.108;6.100;2023-05-07T13:38:34;13.02;;;7.90;;
55641;SDS011;41509;53.108;6.100;2023-05-07T13:41:00;11.40;;;7.57;;
55641;SDS011;41509;53.108;6.100;2023-05-07T13:45:51;12.65;;;7.63;;
55641;SDS011;41509;53.108;6.100;2023-05-07T13:48:20;12.02;;;7.65;;
55641;SDS011;41509;53.108;6.100;2023-05-07T13:53:11;10.73;;;7.55;;
55641;SDS011;41509;53.108;6.100;2023-05-07T13:58:02;14.05;;;9.43;;
55641;SDS011;41509;53.108;6.100;2023-05-07T14:00:31;13.50;;;8.95;;
55641;SDS011;41509;53.108;6.100;2023-05-07T14:05:22;12.82;;;8.20;;
55641;SDS011;41509;53.108;6.100;2023-05-07T14:10:17;14.13;;;8.57;;
55641;SDS011;41509;53.108;6.100;2023-05-07T14:12:46;16.70;;;10.32;;
55641;SDS011;41509;53.108;6.100;2023-05-07T14:15:12;12.02;;;8.25;;
55641;SDS011;41509;53.108;6.100;2023-05-07T14:17:38;13.95;;;9.38;;
55641;SDS011;41509;53.108;6.100;2023-05-07T14:22:31;17.35;;;11.35;;
55641;SDS011;41509;53.108;6.100;2023-05-07T14:27:22;15.90;;;10.60;;
55641;SDS011;41509;53.108;6.100;2023-05-07T14:29:48;15.07;;;10.23;;
55641;SDS011;41509;53.108;6.100;2023-05-07T14:32:16;12.95;;;9.68;;
55641;SDS011;41509;53.108;6.100;2023-05-07T14:34:43;15.80;;;10.05;;
55641;SDS011;41509;53.108;6.100;2023-05-07T14:39:35;14.73;;;9.00;;
55641;SDS011;41509;53.108;6.100;2023-05-07T14:44:26;15.50;;;9.82;;
55641;SDS011;41509;53.108;6.100;2023-05-07T14:49:20;17.98;;;9.40;;
55641;SDS011;41509;53.108;6.100;2023-05-07T14:54:15;13.55;;;9.27;;
55641;SDS011;41509;53.108;6.100;2023-05-07T14:56:40;12.15;;;9.05;;
55641;SDS011;41509;53.108;6.100;2023-05-07T15:01:32;12.27;;;9.10;;
55641;SDS011;41509;53.108;6.100;2023-05-07T15:03:59;13.50;;;9.07;;
55641;SDS011;41509;53.108;6.100;2023-05-07T15:08:51;12.48;;;8.90;;
55641;SDS011;41509;53.108;6.100;2023-05-07T15:13:43;14.20;;;9.93;;
55641;SDS011;41509;53.108;6.100;2023-05-07T15:18:34;12.63;;;9.27;;
55641;SDS011;41509;53.108;6.100;2023-05-07T15:21:00;13.32;;;9.23;;
55641;SDS011;41509;53.108;6.100;2023-05-07T15:25:52;11.75;;;9.43;;
55641;SDS011;41509;53.108;6.100;2023-05-07T15:28:17;13.15;;;9.10;;
55641;SDS011;41509;53.108;6.100;2023-05-07T15:33:09;13.75;;;9.55;;
55641;SDS011;41509;53.108;6.100;2023-05-07T15:35:35;14.43;;;8.80;;
55641;SDS011;41509;53.108;6.100;2023-05-07T15:38:00;11.57;;;8.63;;
55641;SDS011;41509;53.108;6.100;2023-05-07T15:40:27;12.57;;;8.98;;